Capitol Logistics 259


KMIA
Miami International Airport
Miami, Florida, US
CYHZ
Robert L. Stanfield International Airport
Halifax, , CA

Route Details

Aircraft Information
Primary: Boeing 767-300BDSF
Backup: Not Available
Route Data
Distance: 1403nm
Sched. Duration: 3h 29m
Avg. Duration: 3h 36m (+7m)
Times Flown: 6
Recm'd Route: PADUS2 PADUS PERMT AR16 ILM J174 RIFLE J62 ACK J585 DAVES TUSKY PEGGY3
Planned Altitude: 33,000ft
Origin Wx: KMIA 051453Z 11011G19KT 10SM BKN017 BKN250 30/26 A3004 RMK AO2 SLP172 T03000256 51004
Dest. Wx: CYHZ 051500Z 20011KT 15SM FEW080 SCT150 BKN220 19/14 A2992 RMK AC1AC3CI3 SLP133 DENSITY ALT 1100FT
Notes:

Financial History
Total Freight: 241,346lbs
Average Load: 40,224lbs/flt
Fuel Used: 200,786lbs
Avg. Fuel Used: 33,464lbs/flt
Fuel Expense: $246,967
Avg. Fuel Expense: $41,161
Avg. Fuel Cost: $1.23/lbs
Total Gross Income: $351,413
Pilot Pay: $1,354
Total Expenses: $38,265
Total Revenue: $60,429
Average Revenue: $58,568.84